sensor_id;sensor_type;location;lat;lon;timestamp;P1;durP1;ratioP1;P2;durP2;ratioP2
61460;SDS011;47325;50.506;4.472;2023-05-31T00:03:19;3.00;;;1.70;;
61460;SDS011;47325;50.506;4.472;2023-05-31T00:09:04;2.10;;;1.80;;
61460;SDS011;47325;50.506;4.472;2023-05-31T00:14:49;2.40;;;1.90;;
61460;SDS011;47325;50.506;4.472;2023-05-31T00:20:33;2.30;;;1.90;;
61460;SDS011;47325;50.506;4.472;2023-05-31T00:26:18;3.40;;;1.90;;
61460;SDS011;47325;50.506;4.472;2023-05-31T00:32:02;3.00;;;2.10;;
61460;SDS011;47325;50.506;4.472;2023-05-31T00:37:47;3.20;;;2.10;;
61460;SDS011;47325;50.506;4.472;2023-05-31T00:43:31;2.60;;;1.90;;
61460;SDS011;47325;50.506;4.472;2023-05-31T00:49:15;3.10;;;2.00;;
61460;SDS011;47325;50.506;4.472;2023-05-31T00:55:00;3.10;;;1.80;;
61460;SDS011;47325;50.506;4.472;2023-05-31T01:00:44;2.60;;;1.80;;
61460;SDS011;47325;50.506;4.472;2023-05-31T01:06:29;2.10;;;1.90;;
61460;SDS011;47325;50.506;4.472;2023-05-31T01:12:16;2.50;;;1.90;;
61460;SDS011;47325;50.506;4.472;2023-05-31T01:18:06;2.40;;;1.80;;
61460;SDS011;47325;50.506;4.472;2023-05-31T01:23:57;2.90;;;2.10;;
61460;SDS011;47325;50.506;4.472;2023-05-31T01:29:43;2.70;;;2.10;;
61460;SDS011;47325;50.506;4.472;2023-05-31T01:35:29;2.90;;;2.20;;
61460;SDS011;47325;50.506;4.472;2023-05-31T01:41:15;2.90;;;2.20;;
61460;SDS011;47325;50.506;4.472;2023-05-31T01:47:00;3.00;;;2.00;;
61460;SDS011;47325;50.506;4.472;2023-05-31T01:52:45;2.40;;;2.20;;
61460;SDS011;47325;50.506;4.472;2023-05-31T01:58:29;2.80;;;2.10;;
61460;SDS011;47325;50.506;4.472;2023-05-31T02:04:14;2.60;;;2.30;;
61460;SDS011;47325;50.506;4.472;2023-05-31T02:10:00;2.90;;;2.00;;
61460;SDS011;47325;50.506;4.472;2023-05-31T02:15:45;3.00;;;2.20;;
61460;SDS011;47325;50.506;4.472;2023-05-31T02:21:32;3.00;;;2.30;;
61460;SDS011;47325;50.506;4.472;2023-05-31T02:27:16;2.70;;;2.20;;
61460;SDS011;47325;50.506;4.472;2023-05-31T02:33:00;3.20;;;2.30;;
61460;SDS011;47325;50.506;4.472;2023-05-31T02:38:45;2.70;;;2.30;;
61460;SDS011;47325;50.506;4.472;2023-05-31T02:44:29;2.90;;;2.20;;
61460;SDS011;47325;50.506;4.472;2023-05-31T02:50:14;3.40;;;2.30;;
61460;SDS011;47325;50.506;4.472;2023-05-31T02:55:58;2.80;;;2.10;;
61460;SDS011;47325;50.506;4.472;2023-05-31T03:01:42;3.00;;;2.10;;
61460;SDS011;47325;50.506;4.472;2023-05-31T03:07:27;3.30;;;2.20;;
61460;SDS011;47325;50.506;4.472;2023-05-31T03:13:11;2.60;;;2.10;;
61460;SDS011;47325;50.506;4.472;2023-05-31T03:18:56;2.60;;;2.00;;
61460;SDS011;47325;50.506;4.472;2023-05-31T03:24:41;3.00;;;2.10;;
61460;SDS011;47325;50.506;4.472;2023-05-31T03:30:25;2.70;;;2.10;;
61460;SDS011;47325;50.506;4.472;2023-05-31T03:36:10;2.70;;;2.00;;
61460;SDS011;47325;50.506;4.472;2023-05-31T03:41:58;2.50;;;2.10;;
61460;SDS011;47325;50.506;4.472;2023-05-31T03:47:43;3.50;;;2.40;;
61460;SDS011;47325;50.506;4.472;2023-05-31T03:53:28;3.40;;;2.40;;
61460;SDS011;47325;50.506;4.472;2023-05-31T03:59:12;3.40;;;2.30;;
61460;SDS011;47325;50.506;4.472;2023-05-31T04:04:57;2.60;;;2.10;;
61460;SDS011;47325;50.506;4.472;2023-05-31T04:10:42;3.00;;;2.10;;
61460;SDS011;47325;50.506;4.472;2023-05-31T04:16:26;3.20;;;2.20;;
61460;SDS011;47325;50.506;4.472;2023-05-31T04:22:11;3.30;;;2.30;;
61460;SDS011;47325;50.506;4.472;2023-05-31T04:27:55;3.30;;;2.50;;
61460;SDS011;47325;50.506;4.472;2023-05-31T04:33:40;2.20;;;2.00;;
61460;SDS011;47325;50.506;4.472;2023-05-31T04:39:24;3.10;;;2.20;;
61460;SDS011;47325;50.506;4.472;2023-05-31T04:45:09;3.60;;;2.40;;
61460;SDS011;47325;50.506;4.472;2023-05-31T04:50:53;2.80;;;2.30;;
61460;SDS011;47325;50.506;4.472;2023-05-31T04:56:39;3.70;;;2.50;;
61460;SDS011;47325;50.506;4.472;2023-05-31T05:02:23;3.20;;;2.50;;
61460;SDS011;47325;50.506;4.472;2023-05-31T05:08:08;3.40;;;2.70;;
61460;SDS011;47325;50.506;4.472;2023-05-31T05:13:52;3.50;;;2.60;;
61460;SDS011;47325;50.506;4.472;2023-05-31T05:19:37;4.20;;;2.70;;
61460;SDS011;47325;50.506;4.472;2023-05-31T05:25:22;3.80;;;2.60;;
61460;SDS011;47325;50.506;4.472;2023-05-31T05:31:06;3.70;;;2.80;;
61460;SDS011;47325;50.506;4.472;2023-05-31T05:36:51;3.70;;;2.50;;
61460;SDS011;47325;50.506;4.472;2023-05-31T05:42:35;3.30;;;2.70;;
61460;SDS011;47325;50.506;4.472;2023-05-31T05:48:19;3.50;;;2.70;;
61460;SDS011;47325;50.506;4.472;2023-05-31T05:54:04;4.20;;;3.60;;
61460;SDS011;47325;50.506;4.472;2023-05-31T05:59:48;5.70;;;3.50;;
61460;SDS011;47325;50.506;4.472;2023-05-31T06:05:32;10.00;;;6.10;;
61460;SDS011;47325;50.506;4.472;2023-05-31T06:11:17;7.20;;;4.30;;
61460;SDS011;47325;50.506;4.472;2023-05-31T06:17:01;5.50;;;4.00;;
61460;SDS011;47325;50.506;4.472;2023-05-31T06:22:46;6.20;;;3.90;;
61460;SDS011;47325;50.506;4.472;2023-05-31T06:28:31;7.50;;;3.60;;
61460;SDS011;47325;50.506;4.472;2023-05-31T06:34:20;5.40;;;3.50;;
61460;SDS011;47325;50.506;4.472;2023-05-31T06:40:05;7.40;;;3.90;;
61460;SDS011;47325;50.506;4.472;2023-05-31T06:45:50;6.50;;;4.50;;
61460;SDS011;47325;50.506;4.472;2023-05-31T06:51:34;7.90;;;4.20;;
61460;SDS011;47325;50.506;4.472;2023-05-31T06:57:19;6.30;;;3.90;;
61460;SDS011;47325;50.506;4.472;2023-05-31T07:03:03;6.20;;;4.40;;
61460;SDS011;47325;50.506;4.472;2023-05-31T07:08:47;7.50;;;4.00;;
61460;SDS011;47325;50.506;4.472;2023-05-31T07:14:33;5.90;;;4.00;;
61460;SDS011;47325;50.506;4.472;2023-05-31T07:20:18;4.80;;;3.90;;
61460;SDS011;47325;50.506;4.472;2023-05-31T07:26:03;6.20;;;3.80;;
61460;SDS011;47325;50.506;4.472;2023-05-31T07:31:47;5.70;;;3.90;;
61460;SDS011;47325;50.506;4.472;2023-05-31T07:37:32;5.10;;;3.30;;
61460;SDS011;47325;50.506;4.472;2023-05-31T07:43:17;4.40;;;3.10;;
61460;SDS011;47325;50.506;4.472;2023-05-31T07:49:02;4.70;;;3.10;;
61460;SDS011;47325;50.506;4.472;2023-05-31T07:54:46;4.90;;;3.20;;
61460;SDS011;47325;50.506;4.472;2023-05-31T08:00:31;5.00;;;3.10;;
61460;SDS011;47325;50.506;4.472;2023-05-31T08:06:17;4.10;;;3.00;;
61460;SDS011;47325;50.506;4.472;2023-05-31T08:12:01;4.90;;;2.90;;
61460;SDS011;47325;50.506;4.472;2023-05-31T08:17:46;5.50;;;2.90;;
61460;SDS011;47325;50.506;4.472;2023-05-31T08:23:30;8.50;;;3.20;;
61460;SDS011;47325;50.506;4.472;2023-05-31T08:29:15;4.00;;;2.70;;
61460;SDS011;47325;50.506;4.472;2023-05-31T08:34:59;5.30;;;2.80;;
61460;SDS011;47325;50.506;4.472;2023-05-31T08:40:43;6.10;;;2.60;;
61460;SDS011;47325;50.506;4.472;2023-05-31T08:46:27;6.10;;;3.20;;
61460;SDS011;47325;50.506;4.472;2023-05-31T08:52:12;7.40;;;3.00;;
61460;SDS011;47325;50.506;4.472;2023-05-31T08:57:56;6.70;;;3.00;;
61460;SDS011;47325;50.506;4.472;2023-05-31T09:03:42;4.60;;;2.80;;
61460;SDS011;47325;50.506;4.472;2023-05-31T09:09:26;5.80;;;3.30;;
61460;SDS011;47325;50.506;4.472;2023-05-31T09:15:12;6.80;;;3.70;;
61460;SDS011;47325;50.506;4.472;2023-05-31T09:20:57;6.00;;;3.40;;
61460;SDS011;47325;50.506;4.472;2023-05-31T09:26:48;6.60;;;3.40;;
61460;SDS011;47325;50.506;4.472;2023-05-31T09:32:34;7.10;;;3.60;;
61460;SDS011;47325;50.506;4.472;2023-05-31T09:38:19;5.20;;;3.80;;
61460;SDS011;47325;50.506;4.472;2023-05-31T09:44:04;6.70;;;3.90;;
61460;SDS011;47325;50.506;4.472;2023-05-31T09:49:51;7.10;;;3.60;;
61460;SDS011;47325;50.506;4.472;2023-05-31T09:55:42;6.00;;;3.10;;
61460;SDS011;47325;50.506;4.472;2023-05-31T10:01:26;7.70;;;3.60;;
61460;SDS011;47325;50.506;4.472;2023-05-31T10:07:10;7.10;;;3.30;;
61460;SDS011;47325;50.506;4.472;2023-05-31T10:12:58;7.80;;;3.20;;
61460;SDS011;47325;50.506;4.472;2023-05-31T10:18:48;5.40;;;2.90;;
61460;SDS011;47325;50.506;4.472;2023-05-31T10:24:36;6.10;;;2.80;;
61460;SDS011;47325;50.506;4.472;2023-05-31T10:30:21;11.40;;;6.60;;
61460;SDS011;47325;50.506;4.472;2023-05-31T10:36:13;8.50;;;3.90;;
61460;SDS011;47325;50.506;4.472;2023-05-31T10:42:00;7.10;;;3.70;;
61460;SDS011;47325;50.506;4.472;2023-05-31T10:47:49;8.60;;;3.50;;
61460;SDS011;47325;50.506;4.472;2023-05-31T10:53:36;7.00;;;3.20;;
61460;SDS011;47325;50.506;4.472;2023-05-31T10:59:21;6.90;;;2.90;;
61460;SDS011;47325;50.506;4.472;2023-05-31T11:22:52;4.60;;;2.50;;
61460;SDS011;47325;50.506;4.472;2023-05-31T11:34:48;5.80;;;2.60;;
61460;SDS011;47325;50.506;4.472;2023-05-31T11:40:27;5.30;;;2.30;;
61460;SDS011;47325;50.506;4.472;2023-05-31T11:46:11;3.50;;;2.10;;
61460;SDS011;47325;50.506;4.472;2023-05-31T11:51:57;4.60;;;2.30;;
61460;SDS011;47325;50.506;4.472;2023-05-31T11:57:45;3.50;;;1.90;;
61460;SDS011;47325;50.506;4.472;2023-05-31T12:03:29;3.80;;;2.00;;
61460;SDS011;47325;50.506;4.472;2023-05-31T12:09:14;3.30;;;2.00;;
61460;SDS011;47325;50.506;4.472;2023-05-31T12:14:59;3.50;;;1.70;;
61460;SDS011;47325;50.506;4.472;2023-05-31T12:20:43;3.20;;;1.90;;
61460;SDS011;47325;50.506;4.472;2023-05-31T12:26:28;4.40;;;1.70;;
61460;SDS011;47325;50.506;4.472;2023-05-31T12:32:17;5.20;;;2.00;;
61460;SDS011;47325;50.506;4.472;2023-05-31T12:38:02;5.20;;;1.60;;
61460;SDS011;47325;50.506;4.472;2023-05-31T12:43:46;5.00;;;1.70;;
61460;SDS011;47325;50.506;4.472;2023-05-31T12:49:31;4.20;;;1.70;;
61460;SDS011;47325;50.506;4.472;2023-05-31T12:55:16;3.50;;;1.70;;
61460;SDS011;47325;50.506;4.472;2023-05-31T13:01:00;3.40;;;1.80;;
61460;SDS011;47325;50.506;4.472;2023-05-31T13:06:45;5.00;;;1.70;;
61460;SDS011;47325;50.506;4.472;2023-05-31T13:12:29;4.30;;;1.70;;
61460;SDS011;47325;50.506;4.472;2023-05-31T13:18:14;3.50;;;1.50;;
61460;SDS011;47325;50.506;4.472;2023-05-31T13:23:58;3.80;;;1.80;;
61460;SDS011;47325;50.506;4.472;2023-05-31T13:29:43;3.10;;;1.50;;
61460;SDS011;47325;50.506;4.472;2023-05-31T13:35:27;3.80;;;1.70;;
61460;SDS011;47325;50.506;4.472;2023-05-31T13:41:12;3.40;;;1.70;;
61460;SDS011;47325;50.506;4.472;2023-05-31T13:46:56;4.00;;;1.60;;
61460;SDS011;47325;50.506;4.472;2023-05-31T13:52:41;4.50;;;1.70;;
61460;SDS011;47325;50.506;4.472;2023-05-31T13:58:28;3.30;;;1.70;;
61460;SDS011;47325;50.506;4.472;2023-05-31T14:04:12;4.80;;;1.90;;
61460;SDS011;47325;50.506;4.472;2023-05-31T14:09:57;8.10;;;2.30;;
61460;SDS011;47325;50.506;4.472;2023-05-31T14:15:41;7.10;;;2.40;;
61460;SDS011;47325;50.506;4.472;2023-05-31T14:21:25;6.90;;;2.40;;
61460;SDS011;47325;50.506;4.472;2023-05-31T14:27:11;6.70;;;2.30;;
61460;SDS011;47325;50.506;4.472;2023-05-31T14:32:55;4.60;;;2.20;;
61460;SDS011;47325;50.506;4.472;2023-05-31T14:38:41;6.80;;;2.30;;
61460;SDS011;47325;50.506;4.472;2023-05-31T14:44:26;10.90;;;2.70;;
61460;SDS011;47325;50.506;4.472;2023-05-31T14:50:10;6.30;;;2.10;;
61460;SDS011;47325;50.506;4.472;2023-05-31T14:55:54;6.20;;;2.50;;
61460;SDS011;47325;50.506;4.472;2023-05-31T15:01:54;5.60;;;2.50;;
61460;SDS011;47325;50.506;4.472;2023-05-31T15:07:39;4.70;;;2.20;;
61460;SDS011;47325;50.506;4.472;2023-05-31T15:13:24;7.30;;;2.40;;
61460;SDS011;47325;50.506;4.472;2023-05-31T15:19:08;8.80;;;2.30;;
61460;SDS011;47325;50.506;4.472;2023-05-31T15:24:52;5.20;;;2.30;;
61460;SDS011;47325;50.506;4.472;2023-05-31T15:30:37;5.70;;;2.40;;
61460;SDS011;47325;50.506;4.472;2023-05-31T15:36:21;5.30;;;2.40;;
61460;SDS011;47325;50.506;4.472;2023-05-31T15:42:06;6.50;;;2.40;;
61460;SDS011;47325;50.506;4.472;2023-05-31T15:47:51;6.30;;;2.30;;
61460;SDS011;47325;50.506;4.472;2023-05-31T15:53:35;5.60;;;2.30;;
61460;SDS011;47325;50.506;4.472;2023-05-31T15:59:21;5.30;;;2.20;;
61460;SDS011;47325;50.506;4.472;2023-05-31T16:05:05;5.60;;;2.30;;
61460;SDS011;47325;50.506;4.472;2023-05-31T16:10:50;4.90;;;2.10;;
61460;SDS011;47325;50.506;4.472;2023-05-31T16:16:35;6.30;;;2.20;;
61460;SDS011;47325;50.506;4.472;2023-05-31T16:22:20;6.60;;;1.90;;
61460;SDS011;47325;50.506;4.472;2023-05-31T16:28:04;6.50;;;2.10;;
61460;SDS011;47325;50.506;4.472;2023-05-31T16:33:48;4.90;;;1.90;;
61460;SDS011;47325;50.506;4.472;2023-05-31T16:39:33;7.20;;;1.90;;
61460;SDS011;47325;50.506;4.472;2023-05-31T16:45:17;6.40;;;2.00;;
61460;SDS011;47325;50.506;4.472;2023-05-31T16:51:03;9.40;;;1.90;;
61460;SDS011;47325;50.506;4.472;2023-05-31T16:56:47;5.90;;;2.00;;
61460;SDS011;47325;50.506;4.472;2023-05-31T17:02:31;4.50;;;1.90;;
61460;SDS011;47325;50.506;4.472;2023-05-31T17:08:15;3.80;;;1.90;;
61460;SDS011;47325;50.506;4.472;2023-05-31T17:14:00;5.50;;;1.80;;
61460;SDS011;47325;50.506;4.472;2023-05-31T17:19:44;6.30;;;1.80;;
61460;SDS011;47325;50.506;4.472;2023-05-31T17:25:28;5.20;;;2.00;;
61460;SDS011;47325;50.506;4.472;2023-05-31T17:31:14;5.90;;;2.00;;
61460;SDS011;47325;50.506;4.472;2023-05-31T17:36:59;5.00;;;2.20;;
61460;SDS011;47325;50.506;4.472;2023-05-31T17:42:43;4.20;;;1.90;;
61460;SDS011;47325;50.506;4.472;2023-05-31T17:48:28;6.10;;;1.90;;
61460;SDS011;47325;50.506;4.472;2023-05-31T17:54:12;4.70;;;1.90;;
61460;SDS011;47325;50.506;4.472;2023-05-31T17:59:57;5.30;;;1.70;;
61460;SDS011;47325;50.506;4.472;2023-05-31T18:05:42;5.00;;;1.70;;
61460;SDS011;47325;50.506;4.472;2023-05-31T18:11:26;5.40;;;1.80;;
61460;SDS011;47325;50.506;4.472;2023-05-31T18:17:11;4.70;;;1.90;;
61460;SDS011;47325;50.506;4.472;2023-05-31T18:22:55;3.90;;;2.00;;
61460;SDS011;47325;50.506;4.472;2023-05-31T18:28:39;4.80;;;1.80;;
61460;SDS011;47325;50.506;4.472;2023-05-31T18:34:24;4.90;;;1.70;;
61460;SDS011;47325;50.506;4.472;2023-05-31T18:40:09;3.60;;;1.80;;
61460;SDS011;47325;50.506;4.472;2023-05-31T18:45:53;4.10;;;1.70;;
61460;SDS011;47325;50.506;4.472;2023-05-31T18:51:37;9.70;;;2.10;;
61460;SDS011;47325;50.506;4.472;2023-05-31T18:57:22;4.80;;;2.00;;
61460;SDS011;47325;50.506;4.472;2023-05-31T19:03:10;5.80;;;1.90;;
61460;SDS011;47325;50.506;4.472;2023-05-31T19:08:55;5.10;;;1.80;;
61460;SDS011;47325;50.506;4.472;2023-05-31T19:14:40;3.30;;;1.80;;
61460;SDS011;47325;50.506;4.472;2023-05-31T19:20:24;4.40;;;1.80;;
61460;SDS011;47325;50.506;4.472;2023-05-31T19:26:08;3.80;;;1.70;;
61460;SDS011;47325;50.506;4.472;2023-05-31T19:31:53;5.10;;;2.00;;
61460;SDS011;47325;50.506;4.472;2023-05-31T19:37:37;4.10;;;1.80;;
61460;SDS011;47325;50.506;4.472;2023-05-31T19:43:21;4.30;;;1.80;;
61460;SDS011;47325;50.506;4.472;2023-05-31T19:49:06;5.40;;;2.00;;
61460;SDS011;47325;50.506;4.472;2023-05-31T19:54:51;4.40;;;1.70;;
61460;SDS011;47325;50.506;4.472;2023-05-31T20:00:36;3.70;;;1.80;;
61460;SDS011;47325;50.506;4.472;2023-05-31T20:06:20;4.30;;;1.80;;
61460;SDS011;47325;50.506;4.472;2023-05-31T20:12:05;4.40;;;1.80;;
61460;SDS011;47325;50.506;4.472;2023-05-31T20:17:49;3.00;;;1.70;;
61460;SDS011;47325;50.506;4.472;2023-05-31T20:23:33;4.20;;;1.80;;
61460;SDS011;47325;50.506;4.472;2023-05-31T20:29:18;3.10;;;1.80;;
61460;SDS011;47325;50.506;4.472;2023-05-31T20:35:03;3.30;;;1.80;;
61460;SDS011;47325;50.506;4.472;2023-05-31T20:40:47;3.90;;;1.80;;
61460;SDS011;47325;50.506;4.472;2023-05-31T20:46:34;3.50;;;1.80;;
61460;SDS011;47325;50.506;4.472;2023-05-31T20:52:19;3.40;;;1.70;;
61460;SDS011;47325;50.506;4.472;2023-05-31T20:58:03;4.20;;;1.90;;
61460;SDS011;47325;50.506;4.472;2023-05-31T21:03:49;3.00;;;1.80;;
61460;SDS011;47325;50.506;4.472;2023-05-31T21:09:34;2.30;;;1.70;;
61460;SDS011;47325;50.506;4.472;2023-05-31T21:15:18;2.80;;;1.60;;
61460;SDS011;47325;50.506;4.472;2023-05-31T21:21:03;3.90;;;1.80;;
61460;SDS011;47325;50.506;4.472;2023-05-31T21:26:47;4.00;;;1.90;;
61460;SDS011;47325;50.506;4.472;2023-05-31T21:32:31;2.80;;;1.80;;
61460;SDS011;47325;50.506;4.472;2023-05-31T21:38:16;4.00;;;1.80;;
61460;SDS011;47325;50.506;4.472;2023-05-31T21:44:00;3.30;;;1.80;;
61460;SDS011;47325;50.506;4.472;2023-05-31T21:49:44;3.60;;;1.80;;
61460;SDS011;47325;50.506;4.472;2023-05-31T21:55:30;3.10;;;1.80;;
61460;SDS011;47325;50.506;4.472;2023-05-31T22:01:14;2.90;;;1.80;;
61460;SDS011;47325;50.506;4.472;2023-05-31T22:06:59;2.90;;;1.80;;
61460;SDS011;47325;50.506;4.472;2023-05-31T22:12:43;3.20;;;1.70;;
61460;SDS011;47325;50.506;4.472;2023-05-31T22:18:27;4.00;;;1.90;;
61460;SDS011;47325;50.506;4.472;2023-05-31T22:24:12;3.30;;;1.80;;
61460;SDS011;47325;50.506;4.472;2023-05-31T22:29:56;3.80;;;2.00;;
61460;SDS011;47325;50.506;4.472;2023-05-31T22:35:40;3.80;;;1.70;;
61460;SDS011;47325;50.506;4.472;2023-05-31T22:41:25;3.50;;;1.80;;
61460;SDS011;47325;50.506;4.472;2023-05-31T22:47:09;3.90;;;1.90;;
61460;SDS011;47325;50.506;4.472;2023-05-31T22:52:54;3.60;;;1.90;;
61460;SDS011;47325;50.506;4.472;2023-05-31T22:58:38;3.30;;;1.90;;
61460;SDS011;47325;50.506;4.472;2023-05-31T23:04:22;3.50;;;1.90;;
61460;SDS011;47325;50.506;4.472;2023-05-31T23:10:07;4.80;;;1.90;;
61460;SDS011;47325;50.506;4.472;2023-05-31T23:15:51;4.90;;;2.00;;
61460;SDS011;47325;50.506;4.472;2023-05-31T23:21:36;3.50;;;2.00;;
61460;SDS011;47325;50.506;4.472;2023-05-31T23:27:21;3.80;;;2.20;;
61460;SDS011;47325;50.506;4.472;2023-05-31T23:33:07;4.00;;;2.20;;
61460;SDS011;47325;50.506;4.472;2023-05-31T23:38:52;3.70;;;2.00;;
61460;SDS011;47325;50.506;4.472;2023-05-31T23:44:36;5.10;;;2.20;;
61460;SDS011;47325;50.506;4.472;2023-05-31T23:50:20;3.80;;;2.00;;
61460;SDS011;47325;50.506;4.472;2023-05-31T23:56:05;2.70;;;1.80;;
